sensor_id;sensor_type;location;lat;lon;timestamp;temperature;humidity
10492;DHT22;5293;51.464;-2.566;2022-08-21T00:01:54;17.70;99.90
10492;DHT22;5293;51.464;-2.566;2022-08-21T00:04:19;17.60;99.90
10492;DHT22;5293;51.464;-2.566;2022-08-21T00:06:45;17.60;99.90
10492;DHT22;5293;51.464;-2.566;2022-08-21T00:09:11;17.60;99.90
10492;DHT22;5293;51.464;-2.566;2022-08-21T00:11:37;17.60;99.90
10492;DHT22;5293;51.464;-2.566;2022-08-21T00:14:06;17.60;99.90
10492;DHT22;5293;51.464;-2.566;2022-08-21T00:16:33;17.50;99.90
10492;DHT22;5293;51.464;-2.566;2022-08-21T00:18:58;17.50;99.90
10492;DHT22;5293;51.464;-2.566;2022-08-21T00:21:24;17.50;99.90
10492;DHT22;5293;51.464;-2.566;2022-08-21T00:23:51;17.50;99.90
10492;DHT22;5293;51.464;-2.566;2022-08-21T00:26:16;17.50;99.90
10492;DHT22;5293;51.464;-2.566;2022-08-21T00:28:42;17.50;99.90
10492;DHT22;5293;51.464;-2.566;2022-08-21T00:31:08;17.50;99.90
10492;DHT22;5293;51.464;-2.566;2022-08-21T00:33:34;17.40;99.90
10492;DHT22;5293;51.464;-2.566;2022-08-21T00:36:00;17.40;99.90
10492;DHT22;5293;51.464;-2.566;2022-08-21T00:38:26;17.50;99.90
10492;DHT22;5293;51.464;-2.566;2022-08-21T00:40:58;17.40;99.90
10492;DHT22;5293;51.464;-2.566;2022-08-21T00:43:30;17.40;99.90
10492;DHT22;5293;51.464;-2.566;2022-08-21T00:45:57;17.40;99.90
10492;DHT22;5293;51.464;-2.566;2022-08-21T00:48:25;17.40;99.90
10492;DHT22;5293;51.464;-2.566;2022-08-21T00:51:05;17.40;99.90
10492;DHT22;5293;51.464;-2.566;2022-08-21T00:53:33;17.40;99.90
10492;DHT22;5293;51.464;-2.566;2022-08-21T00:56:00;17.40;99.90
10492;DHT22;5293;51.464;-2.566;2022-08-21T00:58:29;17.40;99.90
10492;DHT22;5293;51.464;-2.566;2022-08-21T01:00:57;17.40;99.90
10492;DHT22;5293;51.464;-2.566;2022-08-21T01:03:24;17.30;99.90
10492;DHT22;5293;51.464;-2.566;2022-08-21T01:05:53;17.30;99.90
10492;DHT22;5293;51.464;-2.566;2022-08-21T01:08:21;17.30;99.90
10492;DHT22;5293;51.464;-2.566;2022-08-21T01:10:47;17.30;99.90
10492;DHT22;5293;51.464;-2.566;2022-08-21T01:13:16;17.30;99.90
10492;DHT22;5293;51.464;-2.566;2022-08-21T01:15:45;17.30;99.90
10492;DHT22;5293;51.464;-2.566;2022-08-21T01:18:12;17.30;99.90
10492;DHT22;5293;51.464;-2.566;2022-08-21T01:23:15;17.30;99.90
10492;DHT22;5293;51.464;-2.566;2022-08-21T01:25:40;17.30;99.90
10492;DHT22;5293;51.464;-2.566;2022-08-21T01:28:13;17.30;99.90
10492;DHT22;5293;51.464;-2.566;2022-08-21T01:30:40;17.20;99.90
10492;DHT22;5293;51.464;-2.566;2022-08-21T01:33:07;17.20;99.90
10492;DHT22;5293;51.464;-2.566;2022-08-21T01:35:33;17.20;99.90
10492;DHT22;5293;51.464;-2.566;2022-08-21T01:37:59;17.20;99.90
10492;DHT22;5293;51.464;-2.566;2022-08-21T01:40:25;17.20;99.90
10492;DHT22;5293;51.464;-2.566;2022-08-21T01:42:51;17.10;99.90
10492;DHT22;5293;51.464;-2.566;2022-08-21T01:45:16;17.10;99.90
10492;DHT22;5293;51.464;-2.566;2022-08-21T01:47:44;17.20;99.90
10492;DHT22;5293;51.464;-2.566;2022-08-21T01:50:12;17.20;99.90
10492;DHT22;5293;51.464;-2.566;2022-08-21T01:52:39;17.10;99.90
10492;DHT22;5293;51.464;-2.566;2022-08-21T01:55:07;17.20;99.90
10492;DHT22;5293;51.464;-2.566;2022-08-21T01:57:33;17.10;99.90
10492;DHT22;5293;51.464;-2.566;2022-08-21T01:59:59;17.10;99.90
10492;DHT22;5293;51.464;-2.566;2022-08-21T02:02:25;17.10;99.90
10492;DHT22;5293;51.464;-2.566;2022-08-21T02:04:51;17.20;99.90
10492;DHT22;5293;51.464;-2.566;2022-08-21T02:07:16;17.20;99.90
10492;DHT22;5293;51.464;-2.566;2022-08-21T02:09:42;17.20;99.90
10492;DHT22;5293;51.464;-2.566;2022-08-21T02:12:09;17.20;99.90
10492;DHT22;5293;51.464;-2.566;2022-08-21T02:14:35;17.10;99.90
10492;DHT22;5293;51.464;-2.566;2022-08-21T02:17:01;17.10;99.90
10492;DHT22;5293;51.464;-2.566;2022-08-21T02:19:27;17.10;99.90
10492;DHT22;5293;51.464;-2.566;2022-08-21T02:21:53;17.10;99.90
10492;DHT22;5293;51.464;-2.566;2022-08-21T02:24:18;17.10;99.90
10492;DHT22;5293;51.464;-2.566;2022-08-21T02:26:44;17.10;99.90
10492;DHT22;5293;51.464;-2.566;2022-08-21T02:29:09;17.10;99.90
10492;DHT22;5293;51.464;-2.566;2022-08-21T02:31:35;17.00;99.90
10492;DHT22;5293;51.464;-2.566;2022-08-21T02:34:01;17.10;99.90
10492;DHT22;5293;51.464;-2.566;2022-08-21T02:36:27;17.10;99.90
10492;DHT22;5293;51.464;-2.566;2022-08-21T02:38:52;17.20;99.90
10492;DHT22;5293;51.464;-2.566;2022-08-21T02:41:20;17.20;99.90
10492;DHT22;5293;51.464;-2.566;2022-08-21T02:43:47;17.20;99.90
10492;DHT22;5293;51.464;-2.566;2022-08-21T02:46:16;17.20;99.90
10492;DHT22;5293;51.464;-2.566;2022-08-21T02:48:42;17.20;99.90
10492;DHT22;5293;51.464;-2.566;2022-08-21T02:51:14;17.20;99.90
10492;DHT22;5293;51.464;-2.566;2022-08-21T02:53:41;17.30;99.90
10492;DHT22;5293;51.464;-2.566;2022-08-21T02:56:10;17.40;99.90
10492;DHT22;5293;51.464;-2.566;2022-08-21T02:58:40;17.40;99.90
10492;DHT22;5293;51.464;-2.566;2022-08-21T03:01:07;17.40;99.90
10492;DHT22;5293;51.464;-2.566;2022-08-21T03:03:35;17.40;99.90
10492;DHT22;5293;51.464;-2.566;2022-08-21T03:06:00;17.40;99.90
10492;DHT22;5293;51.464;-2.566;2022-08-21T03:08:26;17.20;99.90
10492;DHT22;5293;51.464;-2.566;2022-08-21T03:10:52;17.30;99.90
10492;DHT22;5293;51.464;-2.566;2022-08-21T03:13:19;17.30;99.90
10492;DHT22;5293;51.464;-2.566;2022-08-21T03:15:47;17.40;99.90
10492;DHT22;5293;51.464;-2.566;2022-08-21T03:18:13;17.30;99.90
10492;DHT22;5293;51.464;-2.566;2022-08-21T03:20:41;17.30;99.90
10492;DHT22;5293;51.464;-2.566;2022-08-21T03:23:08;17.40;99.90
10492;DHT22;5293;51.464;-2.566;2022-08-21T03:25:35;17.40;99.90
10492;DHT22;5293;51.464;-2.566;2022-08-21T03:28:03;17.40;99.90
10492;DHT22;5293;51.464;-2.566;2022-08-21T03:30:29;17.30;99.90
10492;DHT22;5293;51.464;-2.566;2022-08-21T03:33:00;17.40;99.90
10492;DHT22;5293;51.464;-2.566;2022-08-21T03:35:27;17.40;99.90
10492;DHT22;5293;51.464;-2.566;2022-08-21T03:37:53;17.30;99.90
10492;DHT22;5293;51.464;-2.566;2022-08-21T03:40:23;17.40;99.90
10492;DHT22;5293;51.464;-2.566;2022-08-21T03:42:50;17.30;99.90
10492;DHT22;5293;51.464;-2.566;2022-08-21T03:45:17;17.40;99.90
10492;DHT22;5293;51.464;-2.566;2022-08-21T03:48:00;17.30;99.90
10492;DHT22;5293;51.464;-2.566;2022-08-21T03:50:30;17.40;99.90
10492;DHT22;5293;51.464;-2.566;2022-08-21T03:52:56;17.50;99.90
10492;DHT22;5293;51.464;-2.566;2022-08-21T03:55:23;17.40;99.90
10492;DHT22;5293;51.464;-2.566;2022-08-21T03:57:48;17.40;99.90
10492;DHT22;5293;51.464;-2.566;2022-08-21T04:00:16;17.30;99.90
10492;DHT22;5293;51.464;-2.566;2022-08-21T04:02:42;17.30;99.90
10492;DHT22;5293;51.464;-2.566;2022-08-21T04:05:09;17.30;99.90
10492;DHT22;5293;51.464;-2.566;2022-08-21T04:07:35;17.20;99.90
10492;DHT22;5293;51.464;-2.566;2022-08-21T04:10:03;17.30;99.90
10492;DHT22;5293;51.464;-2.566;2022-08-21T04:12:29;17.30;99.90
10492;DHT22;5293;51.464;-2.566;2022-08-21T04:14:55;17.40;99.90
10492;DHT22;5293;51.464;-2.566;2022-08-21T04:17:21;17.40;99.90
10492;DHT22;5293;51.464;-2.566;2022-08-21T04:19:47;17.40;99.90
10492;DHT22;5293;51.464;-2.566;2022-08-21T04:22:13;17.40;99.90
10492;DHT22;5293;51.464;-2.566;2022-08-21T04:24:38;17.30;99.90
10492;DHT22;5293;51.464;-2.566;2022-08-21T04:27:04;17.30;99.90
10492;DHT22;5293;51.464;-2.566;2022-08-21T04:29:30;17.20;99.90
10492;DHT22;5293;51.464;-2.566;2022-08-21T04:31:55;17.20;99.90
10492;DHT22;5293;51.464;-2.566;2022-08-21T04:34:21;17.20;99.90
10492;DHT22;5293;51.464;-2.566;2022-08-21T04:36:46;17.20;99.90
10492;DHT22;5293;51.464;-2.566;2022-08-21T04:39:12;17.20;99.90
10492;DHT22;5293;51.464;-2.566;2022-08-21T04:41:38;17.20;99.90
10492;DHT22;5293;51.464;-2.566;2022-08-21T04:44:04;17.20;99.90
10492;DHT22;5293;51.464;-2.566;2022-08-21T04:46:29;17.30;99.90
10492;DHT22;5293;51.464;-2.566;2022-08-21T04:48:55;17.20;99.90
10492;DHT22;5293;51.464;-2.566;2022-08-21T04:51:29;17.20;99.90
10492;DHT22;5293;51.464;-2.566;2022-08-21T04:54:03;17.20;99.90
10492;DHT22;5293;51.464;-2.566;2022-08-21T04:56:37;17.20;99.90
10492;DHT22;5293;51.464;-2.566;2022-08-21T04:59:11;17.30;99.90
10492;DHT22;5293;51.464;-2.566;2022-08-21T05:01:39;17.30;99.90
10492;DHT22;5293;51.464;-2.566;2022-08-21T05:04:08;17.30;99.90
10492;DHT22;5293;51.464;-2.566;2022-08-21T05:06:37;17.40;99.90
10492;DHT22;5293;51.464;-2.566;2022-08-21T05:09:05;17.40;99.90
10492;DHT22;5293;51.464;-2.566;2022-08-21T05:11:31;17.40;99.90
10492;DHT22;5293;51.464;-2.566;2022-08-21T05:13:58;17.40;99.90
10492;DHT22;5293;51.464;-2.566;2022-08-21T05:16:23;17.40;99.90
10492;DHT22;5293;51.464;-2.566;2022-08-21T05:18:49;17.40;99.90
10492;DHT22;5293;51.464;-2.566;2022-08-21T05:21:15;17.40;99.90
10492;DHT22;5293;51.464;-2.566;2022-08-21T05:23:41;17.40;99.90
10492;DHT22;5293;51.464;-2.566;2022-08-21T05:26:08;17.40;99.90
10492;DHT22;5293;51.464;-2.566;2022-08-21T05:28:34;17.40;99.90
10492;DHT22;5293;51.464;-2.566;2022-08-21T05:31:00;17.50;99.90
10492;DHT22;5293;51.464;-2.566;2022-08-21T05:33:25;17.50;99.90
10492;DHT22;5293;51.464;-2.566;2022-08-21T05:35:53;17.50;99.90
10492;DHT22;5293;51.464;-2.566;2022-08-21T05:38:21;17.50;99.90
10492;DHT22;5293;51.464;-2.566;2022-08-21T05:40:47;17.50;99.90
10492;DHT22;5293;51.464;-2.566;2022-08-21T05:43:14;17.50;99.90
10492;DHT22;5293;51.464;-2.566;2022-08-21T05:45:40;17.50;99.90
10492;DHT22;5293;51.464;-2.566;2022-08-21T05:48:07;17.50;99.90
10492;DHT22;5293;51.464;-2.566;2022-08-21T05:50:34;17.40;99.90
10492;DHT22;5293;51.464;-2.566;2022-08-21T05:53:00;17.40;99.90
10492;DHT22;5293;51.464;-2.566;2022-08-21T05:55:26;17.40;99.90
10492;DHT22;5293;51.464;-2.566;2022-08-21T05:57:51;17.40;99.90
10492;DHT22;5293;51.464;-2.566;2022-08-21T06:00:18;17.20;99.90
10492;DHT22;5293;51.464;-2.566;2022-08-21T06:02:43;17.30;99.90
10492;DHT22;5293;51.464;-2.566;2022-08-21T06:05:09;17.30;99.90
10492;DHT22;5293;51.464;-2.566;2022-08-21T06:07:35;17.40;99.90
10492;DHT22;5293;51.464;-2.566;2022-08-21T06:10:01;17.40;99.90
10492;DHT22;5293;51.464;-2.566;2022-08-21T06:12:27;17.30;99.90
10492;DHT22;5293;51.464;-2.566;2022-08-21T06:14:52;17.30;99.90
10492;DHT22;5293;51.464;-2.566;2022-08-21T06:17:19;17.40;99.90
10492;DHT22;5293;51.464;-2.566;2022-08-21T06:19:45;17.40;99.90
10492;DHT22;5293;51.464;-2.566;2022-08-21T06:22:10;17.40;99.90
10492;DHT22;5293;51.464;-2.566;2022-08-21T06:24:36;17.40;99.90
10492;DHT22;5293;51.464;-2.566;2022-08-21T06:27:06;17.40;99.90
10492;DHT22;5293;51.464;-2.566;2022-08-21T06:29:33;17.50;99.90
10492;DHT22;5293;51.464;-2.566;2022-08-21T06:31:59;17.40;99.90
10492;DHT22;5293;51.464;-2.566;2022-08-21T06:34:25;17.40;99.90
10492;DHT22;5293;51.464;-2.566;2022-08-21T06:36:51;17.50;99.90
10492;DHT22;5293;51.464;-2.566;2022-08-21T06:39:16;17.50;99.90
10492;DHT22;5293;51.464;-2.566;2022-08-21T06:41:42;17.50;99.90
10492;DHT22;5293;51.464;-2.566;2022-08-21T06:44:08;17.70;99.90
10492;DHT22;5293;51.464;-2.566;2022-08-21T06:46:33;17.70;99.90
10492;DHT22;5293;51.464;-2.566;2022-08-21T06:48:59;17.70;99.90
10492;DHT22;5293;51.464;-2.566;2022-08-21T06:51:25;17.70;99.90
10492;DHT22;5293;51.464;-2.566;2022-08-21T06:53:52;17.80;99.90
10492;DHT22;5293;51.464;-2.566;2022-08-21T06:56:18;17.80;99.90
10492;DHT22;5293;51.464;-2.566;2022-08-21T06:58:44;17.80;99.90
10492;DHT22;5293;51.464;-2.566;2022-08-21T07:01:12;17.90;99.90
10492;DHT22;5293;51.464;-2.566;2022-08-21T07:03:41;18.10;99.90
10492;DHT22;5293;51.464;-2.566;2022-08-21T07:06:08;18.10;99.90
10492;DHT22;5293;51.464;-2.566;2022-08-21T07:08:35;18.20;99.90
10492;DHT22;5293;51.464;-2.566;2022-08-21T07:11:03;18.30;99.90
10492;DHT22;5293;51.464;-2.566;2022-08-21T07:13:30;18.30;99.90
10492;DHT22;5293;51.464;-2.566;2022-08-21T07:15:55;18.40;99.90
10492;DHT22;5293;51.464;-2.566;2022-08-21T07:18:21;18.50;99.90
10492;DHT22;5293;51.464;-2.566;2022-08-21T07:20:47;18.50;99.90
10492;DHT22;5293;51.464;-2.566;2022-08-21T07:23:37;18.60;99.90
10492;DHT22;5293;51.464;-2.566;2022-08-21T07:26:03;18.60;99.90
10492;DHT22;5293;51.464;-2.566;2022-08-21T07:28:29;18.70;99.90
10492;DHT22;5293;51.464;-2.566;2022-08-21T07:30:57;18.70;99.90
10492;DHT22;5293;51.464;-2.566;2022-08-21T07:33:24;18.60;99.90
10492;DHT22;5293;51.464;-2.566;2022-08-21T07:35:50;18.60;99.90
10492;DHT22;5293;51.464;-2.566;2022-08-21T07:38:16;18.50;99.90
10492;DHT22;5293;51.464;-2.566;2022-08-21T07:40:43;18.40;99.90
10492;DHT22;5293;51.464;-2.566;2022-08-21T07:43:09;18.30;99.90
10492;DHT22;5293;51.464;-2.566;2022-08-21T07:45:35;18.40;99.90
10492;DHT22;5293;51.464;-2.566;2022-08-21T07:48:00;18.30;99.90
10492;DHT22;5293;51.464;-2.566;2022-08-21T07:50:26;18.20;99.90
10492;DHT22;5293;51.464;-2.566;2022-08-21T07:52:51;18.20;99.90
10492;DHT22;5293;51.464;-2.566;2022-08-21T07:55:20;18.20;99.90
10492;DHT22;5293;51.464;-2.566;2022-08-21T07:57:47;18.30;99.90
10492;DHT22;5293;51.464;-2.566;2022-08-21T08:00:16;18.30;99.90
10492;DHT22;5293;51.464;-2.566;2022-08-21T08:02:45;18.40;99.90
10492;DHT22;5293;51.464;-2.566;2022-08-21T08:05:12;18.40;99.90
10492;DHT22;5293;51.464;-2.566;2022-08-21T08:07:38;18.40;99.90
10492;DHT22;5293;51.464;-2.566;2022-08-21T08:10:05;18.30;99.90
10492;DHT22;5293;51.464;-2.566;2022-08-21T08:12:33;18.30;99.90
10492;DHT22;5293;51.464;-2.566;2022-08-21T08:15:00;18.40;99.90
10492;DHT22;5293;51.464;-2.566;2022-08-21T08:17:26;18.50;99.90
10492;DHT22;5293;51.464;-2.566;2022-08-21T08:19:52;18.50;99.90
10492;DHT22;5293;51.464;-2.566;2022-08-21T08:22:20;18.60;99.90
10492;DHT22;5293;51.464;-2.566;2022-08-21T08:24:47;18.80;99.90
10492;DHT22;5293;51.464;-2.566;2022-08-21T08:27:14;19.00;99.90
10492;DHT22;5293;51.464;-2.566;2022-08-21T08:29:40;19.10;99.90
10492;DHT22;5293;51.464;-2.566;2022-08-21T08:32:06;19.20;99.90
10492;DHT22;5293;51.464;-2.566;2022-08-21T08:34:37;19.40;99.90
10492;DHT22;5293;51.464;-2.566;2022-08-21T08:37:03;19.50;99.90
10492;DHT22;5293;51.464;-2.566;2022-08-21T08:39:30;19.60;99.90
10492;DHT22;5293;51.464;-2.566;2022-08-21T08:42:08;19.60;99.90
10492;DHT22;5293;51.464;-2.566;2022-08-21T08:44:36;19.60;99.90
10492;DHT22;5293;51.464;-2.566;2022-08-21T08:47:03;19.50;99.90
10492;DHT22;5293;51.464;-2.566;2022-08-21T08:49:34;19.60;99.90
10492;DHT22;5293;51.464;-2.566;2022-08-21T08:52:14;19.60;99.90
10492;DHT22;5293;51.464;-2.566;2022-08-21T08:54:51;19.70;99.90
10492;DHT22;5293;51.464;-2.566;2022-08-21T08:57:22;19.90;99.90
10492;DHT22;5293;51.464;-2.566;2022-08-21T08:59:55;20.20;99.90
10492;DHT22;5293;51.464;-2.566;2022-08-21T09:02:22;20.40;99.90
10492;DHT22;5293;51.464;-2.566;2022-08-21T09:04:53;20.60;99.90
10492;DHT22;5293;51.464;-2.566;2022-08-21T09:10:29;20.80;99.90
10492;DHT22;5293;51.464;-2.566;2022-08-21T09:27:14;21.10;99.90
10492;DHT22;5293;51.464;-2.566;2022-08-21T09:29:43;21.10;99.90
10492;DHT22;5293;51.464;-2.566;2022-08-21T09:32:21;21.20;99.90
10492;DHT22;5293;51.464;-2.566;2022-08-21T09:35:10;21.30;99.90
10492;DHT22;5293;51.464;-2.566;2022-08-21T09:38:03;21.50;99.90
10492;DHT22;5293;51.464;-2.566;2022-08-21T09:40:46;21.40;99.90
10492;DHT22;5293;51.464;-2.566;2022-08-21T09:43:22;21.60;99.90
10492;DHT22;5293;51.464;-2.566;2022-08-21T09:46:07;21.70;99.90
10492;DHT22;5293;51.464;-2.566;2022-08-21T09:48:45;21.80;99.90
10492;DHT22;5293;51.464;-2.566;2022-08-21T09:51:17;21.70;99.90
10492;DHT22;5293;51.464;-2.566;2022-08-21T09:53:48;21.90;99.90
10492;DHT22;5293;51.464;-2.566;2022-08-21T09:56:25;21.90;99.90
10492;DHT22;5293;51.464;-2.566;2022-08-21T09:59:24;22.00;99.90
10492;DHT22;5293;51.464;-2.566;2022-08-21T10:01:52;22.00;99.90
10492;DHT22;5293;51.464;-2.566;2022-08-21T10:04:29;22.10;99.90
10492;DHT22;5293;51.464;-2.566;2022-08-21T10:07:05;22.10;99.90
10492;DHT22;5293;51.464;-2.566;2022-08-21T10:09:31;22.20;99.90
10492;DHT22;5293;51.464;-2.566;2022-08-21T10:17:50;22.40;99.90
10492;DHT22;5293;51.464;-2.566;2022-08-21T10:20:23;22.40;99.90
10492;DHT22;5293;51.464;-2.566;2022-08-21T10:25:57;22.30;99.90
10492;DHT22;5293;51.464;-2.566;2022-08-21T10:28:49;22.40;99.90
10492;DHT22;5293;51.464;-2.566;2022-08-21T10:31:42;22.40;99.90
10492;DHT22;5293;51.464;-2.566;2022-08-21T10:34:20;22.40;99.90
10492;DHT22;5293;51.464;-2.566;2022-08-21T10:37:15;22.40;99.90
10492;DHT22;5293;51.464;-2.566;2022-08-21T10:39:59;22.40;99.90
10492;DHT22;5293;51.464;-2.566;2022-08-21T10:45:25;22.40;99.90
10492;DHT22;5293;51.464;-2.566;2022-08-21T10:47:57;22.40;99.90
10492;DHT22;5293;51.464;-2.566;2022-08-21T10:50:34;22.40;99.90
10492;DHT22;5293;51.464;-2.566;2022-08-21T10:56:20;22.40;99.90
10492;DHT22;5293;51.464;-2.566;2022-08-21T11:04:20;22.50;99.90
10492;DHT22;5293;51.464;-2.566;2022-08-21T11:07:02;22.60;99.90
10492;DHT22;5293;51.464;-2.566;2022-08-21T11:09:30;22.70;99.90
10492;DHT22;5293;51.464;-2.566;2022-08-21T11:12:05;22.70;99.90
10492;DHT22;5293;51.464;-2.566;2022-08-21T11:17:12;22.70;99.90
10492;DHT22;5293;51.464;-2.566;2022-08-21T11:19:56;22.60;99.90
10492;DHT22;5293;51.464;-2.566;2022-08-21T11:22:46;22.70;99.90
10492;DHT22;5293;51.464;-2.566;2022-08-21T11:25:20;22.90;99.90
10492;DHT22;5293;51.464;-2.566;2022-08-21T11:27:55;22.90;99.90
10492;DHT22;5293;51.464;-2.566;2022-08-21T11:36:13;23.30;99.90
10492;DHT22;5293;51.464;-2.566;2022-08-21T11:38:42;23.50;99.90
10492;DHT22;5293;51.464;-2.566;2022-08-21T11:51:24;23.80;99.90
10492;DHT22;5293;51.464;-2.566;2022-08-21T11:54:09;23.70;99.90
10492;DHT22;5293;51.464;-2.566;2022-08-21T11:56:55;23.50;99.90
10492;DHT22;5293;51.464;-2.566;2022-08-21T11:59:35;23.30;99.90
10492;DHT22;5293;51.464;-2.566;2022-08-21T12:02:05;23.20;99.90
10492;DHT22;5293;51.464;-2.566;2022-08-21T12:04:44;23.20;99.90
10492;DHT22;5293;51.464;-2.566;2022-08-21T12:07:14;23.10;99.90
10492;DHT22;5293;51.464;-2.566;2022-08-21T12:09:40;23.10;99.90
10492;DHT22;5293;51.464;-2.566;2022-08-21T12:12:36;23.10;99.90
10492;DHT22;5293;51.464;-2.566;2022-08-21T12:15:16;23.30;99.90
10492;DHT22;5293;51.464;-2.566;2022-08-21T12:20:39;23.30;99.90
10492;DHT22;5293;51.464;-2.566;2022-08-21T12:28:11;23.20;99.90
10492;DHT22;5293;51.464;-2.566;2022-08-21T12:30:43;23.10;99.90
10492;DHT22;5293;51.464;-2.566;2022-08-21T12:36:02;23.10;99.90
10492;DHT22;5293;51.464;-2.566;2022-08-21T12:38:32;23.10;99.90
10492;DHT22;5293;51.464;-2.566;2022-08-21T12:41:12;23.10;99.90
10492;DHT22;5293;51.464;-2.566;2022-08-21T12:43:45;23.20;99.90
10492;DHT22;5293;51.464;-2.566;2022-08-21T12:46:21;23.20;99.90
10492;DHT22;5293;51.464;-2.566;2022-08-21T12:49:00;23.40;99.90
10492;DHT22;5293;51.464;-2.566;2022-08-21T12:51:52;23.40;99.90
10492;DHT22;5293;51.464;-2.566;2022-08-21T12:54:29;23.60;99.90
10492;DHT22;5293;51.464;-2.566;2022-08-21T12:57:03;23.70;99.90
10492;DHT22;5293;51.464;-2.566;2022-08-21T12:59:31;23.90;99.90
10492;DHT22;5293;51.464;-2.566;2022-08-21T13:01:58;23.90;99.90
10492;DHT22;5293;51.464;-2.566;2022-08-21T13:04:36;23.90;99.90
10492;DHT22;5293;51.464;-2.566;2022-08-21T13:07:07;23.80;99.90
10492;DHT22;5293;51.464;-2.566;2022-08-21T13:09:41;23.60;99.90
10492;DHT22;5293;51.464;-2.566;2022-08-21T13:12:08;23.60;99.90
10492;DHT22;5293;51.464;-2.566;2022-08-21T13:14:35;23.70;99.90
10492;DHT22;5293;51.464;-2.566;2022-08-21T13:17:04;23.70;99.90
10492;DHT22;5293;51.464;-2.566;2022-08-21T13:19:31;23.60;99.90
10492;DHT22;5293;51.464;-2.566;2022-08-21T13:21:57;23.60;99.90
10492;DHT22;5293;51.464;-2.566;2022-08-21T13:24:29;23.40;99.90
10492;DHT22;5293;51.464;-2.566;2022-08-21T13:26:55;23.50;99.90
10492;DHT22;5293;51.464;-2.566;2022-08-21T13:29:27;23.50;99.90
10492;DHT22;5293;51.464;-2.566;2022-08-21T13:31:57;23.40;99.90
10492;DHT22;5293;51.464;-2.566;2022-08-21T13:34:30;23.30;99.90
10492;DHT22;5293;51.464;-2.566;2022-08-21T13:37:02;23.50;99.90
10492;DHT22;5293;51.464;-2.566;2022-08-21T13:39:29;23.50;99.90
10492;DHT22;5293;51.464;-2.566;2022-08-21T13:41:58;23.70;99.90
10492;DHT22;5293;51.464;-2.566;2022-08-21T13:44:31;23.70;99.90
10492;DHT22;5293;51.464;-2.566;2022-08-21T13:46:59;23.80;99.90
10492;DHT22;5293;51.464;-2.566;2022-08-21T13:49:37;24.00;99.90
10492;DHT22;5293;51.464;-2.566;2022-08-21T13:52:04;24.00;99.90
10492;DHT22;5293;51.464;-2.566;2022-08-21T13:54:40;23.80;99.90
10492;DHT22;5293;51.464;-2.566;2022-08-21T13:57:24;23.90;99.90
10492;DHT22;5293;51.464;-2.566;2022-08-21T13:59:50;23.90;99.90
10492;DHT22;5293;51.464;-2.566;2022-08-21T14:02:20;23.60;99.90
10492;DHT22;5293;51.464;-2.566;2022-08-21T14:05:00;23.70;99.90
10492;DHT22;5293;51.464;-2.566;2022-08-21T14:10:04;23.70;99.90
10492;DHT22;5293;51.464;-2.566;2022-08-21T14:15:03;23.90;99.90
10492;DHT22;5293;51.464;-2.566;2022-08-21T14:17:34;24.20;99.90
10492;DHT22;5293;51.464;-2.566;2022-08-21T14:20:01;24.20;99.90
10492;DHT22;5293;51.464;-2.566;2022-08-21T14:25:10;24.30;99.90
10492;DHT22;5293;51.464;-2.566;2022-08-21T14:28:25;24.40;99.90
10492;DHT22;5293;51.464;-2.566;2022-08-21T14:30:34;24.30;99.90
10492;DHT22;5293;51.464;-2.566;2022-08-21T14:33:01;24.40;99.90
10492;DHT22;5293;51.464;-2.566;2022-08-21T14:35:27;24.50;99.90
10492;DHT22;5293;51.464;-2.566;2022-08-21T14:37:53;24.40;99.90
10492;DHT22;5293;51.464;-2.566;2022-08-21T14:40:21;24.50;99.90
10492;DHT22;5293;51.464;-2.566;2022-08-21T14:42:47;24.50;99.90
10492;DHT22;5293;51.464;-2.566;2022-08-21T14:45:17;24.40;99.90
10492;DHT22;5293;51.464;-2.566;2022-08-21T14:47:45;24.20;99.90
10492;DHT22;5293;51.464;-2.566;2022-08-21T14:50:12;24.20;99.90
10492;DHT22;5293;51.464;-2.566;2022-08-21T14:52:39;24.30;99.90
10492;DHT22;5293;51.464;-2.566;2022-08-21T14:55:06;24.40;99.90
10492;DHT22;5293;51.464;-2.566;2022-08-21T14:57:32;24.40;99.90
10492;DHT22;5293;51.464;-2.566;2022-08-21T14:59:59;24.30;99.90
10492;DHT22;5293;51.464;-2.566;2022-08-21T15:02:25;24.30;99.90
10492;DHT22;5293;51.464;-2.566;2022-08-21T15:04:51;24.40;99.90
10492;DHT22;5293;51.464;-2.566;2022-08-21T15:07:17;24.30;99.90
10492;DHT22;5293;51.464;-2.566;2022-08-21T15:09:43;24.30;99.90
10492;DHT22;5293;51.464;-2.566;2022-08-21T15:12:09;24.30;99.90
10492;DHT22;5293;51.464;-2.566;2022-08-21T15:14:38;24.30;99.90
10492;DHT22;5293;51.464;-2.566;2022-08-21T15:17:06;24.40;99.90
10492;DHT22;5293;51.464;-2.566;2022-08-21T15:19:32;24.50;99.90
10492;DHT22;5293;51.464;-2.566;2022-08-21T15:21:58;24.60;99.90
10492;DHT22;5293;51.464;-2.566;2022-08-21T15:24:23;24.70;99.90
10492;DHT22;5293;51.464;-2.566;2022-08-21T15:26:49;24.70;99.90
10492;DHT22;5293;51.464;-2.566;2022-08-21T15:29:15;24.60;99.90
10492;DHT22;5293;51.464;-2.566;2022-08-21T15:31:54;24.50;99.90
10492;DHT22;5293;51.464;-2.566;2022-08-21T15:34:20;24.40;99.90
10492;DHT22;5293;51.464;-2.566;2022-08-21T15:36:46;24.40;99.90
10492;DHT22;5293;51.464;-2.566;2022-08-21T15:39:12;24.40;99.90
10492;DHT22;5293;51.464;-2.566;2022-08-21T15:41:38;24.40;99.90
10492;DHT22;5293;51.464;-2.566;2022-08-21T15:44:04;24.30;99.90
10492;DHT22;5293;51.464;-2.566;2022-08-21T15:46:30;24.30;99.90
10492;DHT22;5293;51.464;-2.566;2022-08-21T15:48:56;24.30;99.90
10492;DHT22;5293;51.464;-2.566;2022-08-21T15:51:21;24.30;99.90
10492;DHT22;5293;51.464;-2.566;2022-08-21T15:53:47;24.30;99.90
10492;DHT22;5293;51.464;-2.566;2022-08-21T15:56:25;24.30;99.90
10492;DHT22;5293;51.464;-2.566;2022-08-21T15:58:53;24.20;99.90
10492;DHT22;5293;51.464;-2.566;2022-08-21T16:01:23;24.10;99.90
10492;DHT22;5293;51.464;-2.566;2022-08-21T16:03:50;24.00;99.90
10492;DHT22;5293;51.464;-2.566;2022-08-21T16:06:17;24.00;99.90
10492;DHT22;5293;51.464;-2.566;2022-08-21T16:08:43;24.00;99.90
10492;DHT22;5293;51.464;-2.566;2022-08-21T16:11:09;23.90;99.90
10492;DHT22;5293;51.464;-2.566;2022-08-21T16:13:39;23.90;99.90
10492;DHT22;5293;51.464;-2.566;2022-08-21T16:16:12;23.70;99.90
10492;DHT22;5293;51.464;-2.566;2022-08-21T16:18:39;23.70;99.90
10492;DHT22;5293;51.464;-2.566;2022-08-21T16:21:05;23.70;99.90
10492;DHT22;5293;51.464;-2.566;2022-08-21T16:23:30;23.60;99.90
10492;DHT22;5293;51.464;-2.566;2022-08-21T16:25:58;23.50;99.90
10492;DHT22;5293;51.464;-2.566;2022-08-21T16:28:24;23.40;99.90
10492;DHT22;5293;51.464;-2.566;2022-08-21T16:30:51;23.40;99.90
10492;DHT22;5293;51.464;-2.566;2022-08-21T16:33:36;23.40;99.90
10492;DHT22;5293;51.464;-2.566;2022-08-21T16:36:04;23.40;99.90
10492;DHT22;5293;51.464;-2.566;2022-08-21T16:38:30;23.40;99.90
10492;DHT22;5293;51.464;-2.566;2022-08-21T16:40:58;23.40;99.90
10492;DHT22;5293;51.464;-2.566;2022-08-21T16:43:27;23.30;99.90
10492;DHT22;5293;51.464;-2.566;2022-08-21T16:45:55;23.30;99.90
10492;DHT22;5293;51.464;-2.566;2022-08-21T16:48:21;23.20;99.90
10492;DHT22;5293;51.464;-2.566;2022-08-21T16:50:47;23.20;99.90
10492;DHT22;5293;51.464;-2.566;2022-08-21T16:53:13;23.30;99.90
10492;DHT22;5293;51.464;-2.566;2022-08-21T16:55:39;23.20;99.90
10492;DHT22;5293;51.464;-2.566;2022-08-21T17:00:53;23.10;99.90
10492;DHT22;5293;51.464;-2.566;2022-08-21T17:03:20;22.90;99.90